sensor_id;sensor_type;location;lat;lon;timestamp;temperature;humidity
1075;DHT22;526;51.392;12.448;2023-07-09T04:01:38;17.50;97.30
1075;DHT22;526;51.392;12.448;2023-07-09T04:04:04;17.50;97.30
1075;DHT22;526;51.392;12.448;2023-07-09T04:06:29;17.50;97.30
1075;DHT22;526;51.392;12.448;2023-07-09T04:08:55;17.50;97.30
1075;DHT22;526;51.392;12.448;2023-07-09T04:11:20;17.50;97.30
1075;DHT22;526;51.392;12.448;2023-07-09T04:13:46;17.50;97.30
1075;DHT22;526;51.392;12.448;2023-07-09T04:16:11;17.50;97.30
1075;DHT22;526;51.392;12.448;2023-07-09T04:18:37;17.50;97.30
1075;DHT22;526;51.392;12.448;2023-07-09T04:21:02;17.60;97.30
1075;DHT22;526;51.392;12.448;2023-07-09T04:23:28;17.60;97.30
1075;DHT22;526;51.392;12.448;2023-07-09T04:25:54;17.70;97.30
1075;DHT22;526;51.392;12.448;2023-07-09T04:28:19;17.70;97.30
1075;DHT22;526;51.392;12.448;2023-07-09T04:30:49;17.80;97.30
1075;DHT22;526;51.392;12.448;2023-07-09T04:33:17;17.80;97.30
1075;DHT22;526;51.392;12.448;2023-07-09T04:35:46;17.80;97.30
1075;DHT22;526;51.392;12.448;2023-07-09T04:38:13;17.90;97.30
1075;DHT22;526;51.392;12.448;2023-07-09T04:40:39;17.90;97.30
1075;DHT22;526;51.392;12.448;2023-07-09T04:43:04;18.00;97.30
1075;DHT22;526;51.392;12.448;2023-07-09T04:45:30;18.00;97.30
1075;DHT22;526;51.392;12.448;2023-07-09T04:47:55;18.10;97.30
1075;DHT22;526;51.392;12.448;2023-07-09T04:50:21;18.10;97.30
1075;DHT22;526;51.392;12.448;2023-07-09T04:52:47;18.20;97.30
1075;DHT22;526;51.392;12.448;2023-07-09T04:55:12;18.30;97.30
1075;DHT22;526;51.392;12.448;2023-07-09T04:57:38;18.30;97.30
1075;DHT22;526;51.392;12.448;2023-07-09T05:00:05;18.40;97.30
1075;DHT22;526;51.392;12.448;2023-07-09T05:02:31;18.40;97.30
1075;DHT22;526;51.392;12.448;2023-07-09T05:04:57;18.50;97.30
1075;DHT22;526;51.392;12.448;2023-07-09T05:07:22;18.60;97.30
1075;DHT22;526;51.392;12.448;2023-07-09T05:09:48;18.60;97.30
1075;DHT22;526;51.392;12.448;2023-07-09T05:12:14;18.70;97.30
1075;DHT22;526;51.392;12.448;2023-07-09T05:14:39;18.70;97.30
1075;DHT22;526;51.392;12.448;2023-07-09T05:19:33;18.90;97.30
1075;DHT22;526;51.392;12.448;2023-07-09T05:21:59;18.90;97.30
1075;DHT22;526;51.392;12.448;2023-07-09T05:24:24;19.00;97.30
1075;DHT22;526;51.392;12.448;2023-07-09T05:26:50;19.00;97.30
1075;DHT22;526;51.392;12.448;2023-07-09T05:29:15;19.10;97.30
1075;DHT22;526;51.392;12.448;2023-07-09T05:31:41;19.10;97.30
1075;DHT22;526;51.392;12.448;2023-07-09T05:34:07;19.20;97.20
1075;DHT22;526;51.392;12.448;2023-07-09T05:36:34;19.20;96.90
1075;DHT22;526;51.392;12.448;2023-07-09T05:39:00;19.30;96.90
1075;DHT22;526;51.392;12.448;2023-07-09T05:41:25;19.30;96.80
1075;DHT22;526;51.392;12.448;2023-07-09T05:43:52;19.40;96.60
1075;DHT22;526;51.392;12.448;2023-07-09T05:46:18;19.40;96.20
1075;DHT22;526;51.392;12.448;2023-07-09T05:48:44;19.50;95.70
1075;DHT22;526;51.392;12.448;2023-07-09T05:51:10;19.60;95.70
1075;DHT22;526;51.392;12.448;2023-07-09T05:53:36;19.70;95.60
1075;DHT22;526;51.392;12.448;2023-07-09T05:56:01;19.70;95.40
1075;DHT22;526;51.392;12.448;2023-07-09T05:58:27;19.80;95.40
1075;DHT22;526;51.392;12.448;2023-07-09T06:00:53;19.80;95.20
1075;DHT22;526;51.392;12.448;2023-07-09T06:03:20;19.90;95.00
1075;DHT22;526;51.392;12.448;2023-07-09T06:05:47;20.00;94.90
1075;DHT22;526;51.392;12.448;2023-07-09T06:08:15;20.00;94.90
1075;DHT22;526;51.392;12.448;2023-07-09T06:10:56;20.10;94.60
1075;DHT22;526;51.392;12.448;2023-07-09T06:13:23;20.20;94.60
1075;DHT22;526;51.392;12.448;2023-07-09T06:15:51;20.30;94.50
1075;DHT22;526;51.392;12.448;2023-07-09T06:18:16;20.40;94.60
1075;DHT22;526;51.392;12.448;2023-07-09T06:20:48;20.50;93.90
1075;DHT22;526;51.392;12.448;2023-07-09T06:23:13;20.60;93.80
1075;DHT22;526;51.392;12.448;2023-07-09T06:25:39;20.70;93.80
1075;DHT22;526;51.392;12.448;2023-07-09T06:28:05;20.80;93.70
1075;DHT22;526;51.392;12.448;2023-07-09T06:30:30;20.90;93.60
1075;DHT22;526;51.392;12.448;2023-07-09T06:32:56;21.00;93.30
1075;DHT22;526;51.392;12.448;2023-07-09T06:35:21;21.10;92.90
1075;DHT22;526;51.392;12.448;2023-07-09T06:37:47;21.20;92.60
1075;DHT22;526;51.392;12.448;2023-07-09T06:40:12;21.30;92.10
1075;DHT22;526;51.392;12.448;2023-07-09T06:42:39;21.50;91.90
1075;DHT22;526;51.392;12.448;2023-07-09T06:45:05;21.60;91.90
1075;DHT22;526;51.392;12.448;2023-07-09T06:47:31;21.70;92.20
1075;DHT22;526;51.392;12.448;2023-07-09T06:49:56;21.80;91.50
1075;DHT22;526;51.392;12.448;2023-07-09T06:52:23;21.90;91.20
1075;DHT22;526;51.392;12.448;2023-07-09T06:54:48;22.00;91.10
1075;DHT22;526;51.392;12.448;2023-07-09T06:57:14;22.10;91.00
1075;DHT22;526;51.392;12.448;2023-07-09T06:59:40;22.30;91.10
1075;DHT22;526;51.392;12.448;2023-07-09T07:02:06;22.40;91.00
1075;DHT22;526;51.392;12.448;2023-07-09T07:04:33;22.50;90.80
1075;DHT22;526;51.392;12.448;2023-07-09T07:06:58;22.60;90.10
1075;DHT22;526;51.392;12.448;2023-07-09T07:09:24;22.70;89.70
1075;DHT22;526;51.392;12.448;2023-07-09T07:11:50;22.80;89.50
1075;DHT22;526;51.392;12.448;2023-07-09T07:14:15;22.90;89.60
1075;DHT22;526;51.392;12.448;2023-07-09T07:16:41;23.00;89.80
1075;DHT22;526;51.392;12.448;2023-07-09T07:19:06;23.10;89.80
1075;DHT22;526;51.392;12.448;2023-07-09T07:21:32;23.20;89.40
1075;DHT22;526;51.392;12.448;2023-07-09T07:23:58;23.40;88.50
1075;DHT22;526;51.392;12.448;2023-07-09T07:26:23;23.50;87.40
1075;DHT22;526;51.392;12.448;2023-07-09T07:28:49;23.60;86.60
1075;DHT22;526;51.392;12.448;2023-07-09T07:31:15;23.70;86.20
1075;DHT22;526;51.392;12.448;2023-07-09T07:33:41;23.80;86.70
1075;DHT22;526;51.392;12.448;2023-07-09T07:36:09;23.90;85.70
1075;DHT22;526;51.392;12.448;2023-07-09T07:38:35;24.00;85.70
1075;DHT22;526;51.392;12.448;2023-07-09T07:41:01;24.10;85.90
1075;DHT22;526;51.392;12.448;2023-07-09T07:43:27;24.30;85.20
1075;DHT22;526;51.392;12.448;2023-07-09T07:45:53;24.40;85.20
1075;DHT22;526;51.392;12.448;2023-07-09T07:48:18;24.60;84.70
1075;DHT22;526;51.392;12.448;2023-07-09T07:50:45;24.80;84.40
1075;DHT22;526;51.392;12.448;2023-07-09T07:53:13;24.90;83.50
1075;DHT22;526;51.392;12.448;2023-07-09T07:55:40;25.00;82.60
1075;DHT22;526;51.392;12.448;2023-07-09T07:58:07;25.10;82.20
1075;DHT22;526;51.392;12.448;2023-07-09T08:00:33;25.20;82.90
1075;DHT22;526;51.392;12.448;2023-07-09T08:02:59;25.30;82.70
1075;DHT22;526;51.392;12.448;2023-07-09T08:05:25;25.50;82.20
1075;DHT22;526;51.392;12.448;2023-07-09T08:07:51;25.60;82.10
1075;DHT22;526;51.392;12.448;2023-07-09T08:10:16;25.80;81.90
1075;DHT22;526;51.392;12.448;2023-07-09T08:12:43;25.90;80.80
1075;DHT22;526;51.392;12.448;2023-07-09T08:15:09;26.10;79.90
1075;DHT22;526;51.392;12.448;2023-07-09T08:17:35;26.20;79.10
1075;DHT22;526;51.392;12.448;2023-07-09T08:20:00;26.30;79.00
1075;DHT22;526;51.392;12.448;2023-07-09T08:22:26;26.40;78.90
1075;DHT22;526;51.392;12.448;2023-07-09T08:24:51;26.50;78.60
1075;DHT22;526;51.392;12.448;2023-07-09T08:27:18;26.70;79.00
1075;DHT22;526;51.392;12.448;2023-07-09T08:29:46;26.90;78.10
1075;DHT22;526;51.392;12.448;2023-07-09T08:32:12;27.00;77.70
1075;DHT22;526;51.392;12.448;2023-07-09T08:34:39;27.10;77.60
1075;DHT22;526;51.392;12.448;2023-07-09T08:37:06;27.20;77.00
1075;DHT22;526;51.392;12.448;2023-07-09T08:39:31;27.40;76.30
1075;DHT22;526;51.392;12.448;2023-07-09T08:42:09;27.50;75.60
1075;DHT22;526;51.392;12.448;2023-07-09T08:47:23;27.60;73.10
1075;DHT22;526;51.392;12.448;2023-07-09T08:50:15;27.70;73.70
1075;DHT22;526;51.392;12.448;2023-07-09T08:52:44;27.90;73.60
1075;DHT22;526;51.392;12.448;2023-07-09T08:55:15;28.00;73.30
1075;DHT22;526;51.392;12.448;2023-07-09T08:57:44;28.10;73.60
1075;DHT22;526;51.392;12.448;2023-07-09T09:03:08;28.40;72.40
1075;DHT22;526;51.392;12.448;2023-07-09T09:05:39;28.60;72.40
1075;DHT22;526;51.392;12.448;2023-07-09T09:08:42;28.70;72.80
1075;DHT22;526;51.392;12.448;2023-07-09T09:11:21;28.80;72.50
1075;DHT22;526;51.392;12.448;2023-07-09T09:13:52;29.00;71.50
1075;DHT22;526;51.392;12.448;2023-07-09T09:16:28;29.10;70.90
1075;DHT22;526;51.392;12.448;2023-07-09T09:18:57;29.10;71.50
1075;DHT22;526;51.392;12.448;2023-07-09T09:21:29;29.20;71.00
1075;DHT22;526;51.392;12.448;2023-07-09T09:23:58;29.30;71.10
1075;DHT22;526;51.392;12.448;2023-07-09T09:28:50;29.40;70.10
1075;DHT22;526;51.392;12.448;2023-07-09T09:31:17;29.50;70.30
1075;DHT22;526;51.392;12.448;2023-07-09T09:33:45;29.60;69.60
1075;DHT22;526;51.392;12.448;2023-07-09T09:36:16;29.70;69.20
1075;DHT22;526;51.392;12.448;2023-07-09T09:38:42;29.80;69.30
1075;DHT22;526;51.392;12.448;2023-07-09T09:41:21;29.90;69.40
1075;DHT22;526;51.392;12.448;2023-07-09T09:43:48;30.00;69.00
1075;DHT22;526;51.392;12.448;2023-07-09T09:46:26;30.10;66.20
1075;DHT22;526;51.392;12.448;2023-07-09T09:48:58;30.10;66.80
1075;DHT22;526;51.392;12.448;2023-07-09T09:51:25;30.20;66.80
1075;DHT22;526;51.392;12.448;2023-07-09T09:53:57;30.20;67.20
1075;DHT22;526;51.392;12.448;2023-07-09T09:56:36;30.30;67.30
1075;DHT22;526;51.392;12.448;2023-07-09T09:59:04;30.40;67.20
1075;DHT22;526;51.392;12.448;2023-07-09T10:01:33;30.40;66.70
1075;DHT22;526;51.392;12.448;2023-07-09T10:04:01;30.50;66.60
1075;DHT22;526;51.392;12.448;2023-07-09T10:06:38;30.60;65.70
1075;DHT22;526;51.392;12.448;2023-07-09T10:15:20;31.00;67.40
1075;DHT22;526;51.392;12.448;2023-07-09T10:18:32;31.10;66.30
1075;DHT22;526;51.392;12.448;2023-07-09T10:21:27;31.20;66.20
1075;DHT22;526;51.392;12.448;2023-07-09T10:26:46;31.40;64.40
1075;DHT22;526;51.392;12.448;2023-07-09T10:29:28;31.50;63.60
1075;DHT22;526;51.392;12.448;2023-07-09T10:35:07;31.60;62.30
1075;DHT22;526;51.392;12.448;2023-07-09T10:37:43;31.60;63.00
1075;DHT22;526;51.392;12.448;2023-07-09T10:40:14;31.70;62.60
1075;DHT22;526;51.392;12.448;2023-07-09T10:42:48;31.80;63.70
1075;DHT22;526;51.392;12.448;2023-07-09T10:45:23;31.90;63.20
1075;DHT22;526;51.392;12.448;2023-07-09T10:47:58;31.90;62.90
1075;DHT22;526;51.392;12.448;2023-07-09T10:50:27;32.00;63.80
1075;DHT22;526;51.392;12.448;2023-07-09T10:53:02;32.10;63.40
1075;DHT22;526;51.392;12.448;2023-07-09T10:55:50;32.20;62.90
1075;DHT22;526;51.392;12.448;2023-07-09T10:58:39;32.30;63.60
1075;DHT22;526;51.392;12.448;2023-07-09T11:01:05;32.30;62.30
1075;DHT22;526;51.392;12.448;2023-07-09T11:03:39;32.40;63.20
1075;DHT22;526;51.392;12.448;2023-07-09T11:06:14;32.50;62.20
1075;DHT22;526;51.392;12.448;2023-07-09T11:08:44;32.60;62.20
1075;DHT22;526;51.392;12.448;2023-07-09T11:11:17;32.60;62.40
1075;DHT22;526;51.392;12.448;2023-07-09T11:13:56;32.70;62.20
1075;DHT22;526;51.392;12.448;2023-07-09T11:16:30;32.80;61.40
1075;DHT22;526;51.392;12.448;2023-07-09T11:19:02;32.80;61.20
1075;DHT22;526;51.392;12.448;2023-07-09T11:21:28;32.90;61.90
1075;DHT22;526;51.392;12.448;2023-07-09T11:23:57;33.00;62.00
1075;DHT22;526;51.392;12.448;2023-07-09T11:26:34;33.00;61.60
1075;DHT22;526;51.392;12.448;2023-07-09T11:31:40;33.30;62.50
1075;DHT22;526;51.392;12.448;2023-07-09T11:34:10;33.30;61.00
1075;DHT22;526;51.392;12.448;2023-07-09T11:42:22;33.40;59.40
1075;DHT22;526;51.392;12.448;2023-07-09T11:44:49;33.40;60.60
1075;DHT22;526;51.392;12.448;2023-07-09T11:47:31;33.50;61.90
1075;DHT22;526;51.392;12.448;2023-07-09T11:50:04;33.50;60.60
1075;DHT22;526;51.392;12.448;2023-07-09T11:52:52;33.60;60.20
1075;DHT22;526;51.392;12.448;2023-07-09T11:55:39;33.60;60.20
1075;DHT22;526;51.392;12.448;2023-07-09T11:58:07;33.70;61.00
1075;DHT22;526;51.392;12.448;2023-07-09T12:00:42;33.80;62.50
1075;DHT22;526;51.392;12.448;2023-07-09T12:03:17;33.90;62.50
1075;DHT22;526;51.392;12.448;2023-07-09T12:05:51;34.10;62.20
1075;DHT22;526;51.392;12.448;2023-07-09T12:08:21;34.20;61.10
1075;DHT22;526;51.392;12.448;2023-07-09T12:10:48;34.30;61.40
1075;DHT22;526;51.392;12.448;2023-07-09T12:13:14;34.40;60.40
1075;DHT22;526;51.392;12.448;2023-07-09T12:15:40;34.50;59.90
1075;DHT22;526;51.392;12.448;2023-07-09T12:18:13;34.60;59.80
1075;DHT22;526;51.392;12.448;2023-07-09T12:20:40;34.70;60.40
1075;DHT22;526;51.392;12.448;2023-07-09T12:25:49;34.80;60.90
1075;DHT22;526;51.392;12.448;2023-07-09T12:28:15;34.90;60.90
1075;DHT22;526;51.392;12.448;2023-07-09T12:30:48;34.90;60.40
1075;DHT22;526;51.392;12.448;2023-07-09T12:33:21;35.00;59.10
1075;DHT22;526;51.392;12.448;2023-07-09T12:35:49;35.00;58.70
1075;DHT22;526;51.392;12.448;2023-07-09T12:38:20;35.10;59.30
1075;DHT22;526;51.392;12.448;2023-07-09T12:40:50;35.20;59.00
1075;DHT22;526;51.392;12.448;2023-07-09T12:43:25;35.20;59.40
1075;DHT22;526;51.392;12.448;2023-07-09T12:45:52;35.30;60.10
1075;DHT22;526;51.392;12.448;2023-07-09T12:48:22;35.40;60.40
1075;DHT22;526;51.392;12.448;2023-07-09T12:50:49;35.40;59.90
1075;DHT22;526;51.392;12.448;2023-07-09T12:53:18;35.50;60.20
1075;DHT22;526;51.392;12.448;2023-07-09T12:55:46;35.60;60.50
1075;DHT22;526;51.392;12.448;2023-07-09T12:58:23;35.60;60.20
1075;DHT22;526;51.392;12.448;2023-07-09T13:00:54;35.70;59.40
1075;DHT22;526;51.392;12.448;2023-07-09T13:03:24;35.70;59.40
1075;DHT22;526;51.392;12.448;2023-07-09T13:05:56;35.70;59.10
1075;DHT22;526;51.392;12.448;2023-07-09T13:08:23;35.70;59.40
1075;DHT22;526;51.392;12.448;2023-07-09T13:10:49;35.80;60.10
1075;DHT22;526;51.392;12.448;2023-07-09T13:13:19;35.90;58.70
1075;DHT22;526;51.392;12.448;2023-07-09T13:15:51;35.90;59.10
1075;DHT22;526;51.392;12.448;2023-07-09T13:18:16;35.90;58.00
1075;DHT22;526;51.392;12.448;2023-07-09T13:20:44;35.80;58.20
1075;DHT22;526;51.392;12.448;2023-07-09T13:23:18;35.80;58.60
1075;DHT22;526;51.392;12.448;2023-07-09T13:25:44;35.80;58.20
1075;DHT22;526;51.392;12.448;2023-07-09T13:28:41;35.90;58.70
1075;DHT22;526;51.392;12.448;2023-07-09T13:31:11;36.00;58.10
1075;DHT22;526;51.392;12.448;2023-07-09T13:33:38;35.90;57.60
1075;DHT22;526;51.392;12.448;2023-07-09T13:36:04;36.00;57.30
1075;DHT22;526;51.392;12.448;2023-07-09T13:38:32;36.10;57.70
1075;DHT22;526;51.392;12.448;2023-07-09T13:41:01;36.20;57.00
1075;DHT22;526;51.392;12.448;2023-07-09T13:43:36;36.30;56.80
1075;DHT22;526;51.392;12.448;2023-07-09T13:46:03;36.30;56.40
1075;DHT22;526;51.392;12.448;2023-07-09T13:48:31;36.20;55.50
1075;DHT22;526;51.392;12.448;2023-07-09T13:50:57;36.20;55.70
1075;DHT22;526;51.392;12.448;2023-07-09T13:53:26;36.20;56.60
1075;DHT22;526;51.392;12.448;2023-07-09T13:55:53;36.30;55.90
1075;DHT22;526;51.392;12.448;2023-07-09T13:58:26;36.30;55.50
1075;DHT22;526;51.392;12.448;2023-07-09T14:00:59;36.30;55.30
1075;DHT22;526;51.392;12.448;2023-07-09T14:03:31;36.20;55.50
1075;DHT22;526;51.392;12.448;2023-07-09T14:05:57;36.20;55.50
1075;DHT22;526;51.392;12.448;2023-07-09T14:08:23;36.20;55.80
1075;DHT22;526;51.392;12.448;2023-07-09T14:10:49;36.30;55.40
1075;DHT22;526;51.392;12.448;2023-07-09T14:13:17;36.20;55.60
1075;DHT22;526;51.392;12.448;2023-07-09T14:15:43;36.30;55.50
1075;DHT22;526;51.392;12.448;2023-07-09T14:18:19;36.30;54.70
1075;DHT22;526;51.392;12.448;2023-07-09T14:20:45;36.30;54.90
1075;DHT22;526;51.392;12.448;2023-07-09T14:23:15;36.30;54.60
1075;DHT22;526;51.392;12.448;2023-07-09T14:25:42;36.30;55.00
1075;DHT22;526;51.392;12.448;2023-07-09T14:28:17;36.40;55.00
1075;DHT22;526;51.392;12.448;2023-07-09T14:30:43;36.50;55.30
1075;DHT22;526;51.392;12.448;2023-07-09T14:33:28;36.60;55.40
1075;DHT22;526;51.392;12.448;2023-07-09T14:35:54;36.70;56.00
1075;DHT22;526;51.392;12.448;2023-07-09T14:38:23;36.80;56.10
1075;DHT22;526;51.392;12.448;2023-07-09T14:40:50;36.90;55.70
1075;DHT22;526;51.392;12.448;2023-07-09T14:43:16;36.90;55.20
1075;DHT22;526;51.392;12.448;2023-07-09T14:45:42;36.90;55.10
1075;DHT22;526;51.392;12.448;2023-07-09T14:48:19;37.00;55.40
1075;DHT22;526;51.392;12.448;2023-07-09T14:50:45;37.00;55.40
1075;DHT22;526;51.392;12.448;2023-07-09T14:53:26;37.10;56.70
1075;DHT22;526;51.392;12.448;2023-07-09T14:55:53;37.20;57.10
1075;DHT22;526;51.392;12.448;2023-07-09T14:58:20;37.20;56.10
1075;DHT22;526;51.392;12.448;2023-07-09T15:00:47;37.30;55.60
1075;DHT22;526;51.392;12.448;2023-07-09T15:03:24;37.40;56.30
1075;DHT22;526;51.392;12.448;2023-07-09T15:05:51;37.40;56.00
1075;DHT22;526;51.392;12.448;2023-07-09T15:08:19;37.20;56.00
1075;DHT22;526;51.392;12.448;2023-07-09T15:10:45;37.00;55.50
1075;DHT22;526;51.392;12.448;2023-07-09T15:13:21;36.80;57.10
1075;DHT22;526;51.392;12.448;2023-07-09T15:15:50;36.50;56.50
1075;DHT22;526;51.392;12.448;2023-07-09T15:18:16;36.30;58.60
1075;DHT22;526;51.392;12.448;2023-07-09T15:20:49;36.00;58.60
1075;DHT22;526;51.392;12.448;2023-07-09T15:23:16;35.70;57.90
1075;DHT22;526;51.392;12.448;2023-07-09T15:25:41;35.60;59.40
1075;DHT22;526;51.392;12.448;2023-07-09T15:28:10;35.60;61.10
1075;DHT22;526;51.392;12.448;2023-07-09T15:30:36;35.70;58.60
1075;DHT22;526;51.392;12.448;2023-07-09T15:33:03;35.80;58.60
1075;DHT22;526;51.392;12.448;2023-07-09T15:35:34;36.00;58.40
1075;DHT22;526;51.392;12.448;2023-07-09T15:38:05;36.20;58.40
1075;DHT22;526;51.392;12.448;2023-07-09T15:40:37;36.40;58.60
1075;DHT22;526;51.392;12.448;2023-07-09T15:43:08;36.50;59.00
1075;DHT22;526;51.392;12.448;2023-07-09T15:45:38;36.60;58.70
1075;DHT22;526;51.392;12.448;2023-07-09T15:48:05;36.50;58.60
1075;DHT22;526;51.392;12.448;2023-07-09T15:50:31;36.40;58.50
1075;DHT22;526;51.392;12.448;2023-07-09T15:52:58;36.40;59.00
1075;DHT22;526;51.392;12.448;2023-07-09T15:55:25;36.40;58.30
1075;DHT22;526;51.392;12.448;2023-07-09T15:57:53;36.50;58.70
1075;DHT22;526;51.392;12.448;2023-07-09T16:00:23;36.50;58.60
1075;DHT22;526;51.392;12.448;2023-07-09T16:02:50;36.60;59.30
1075;DHT22;526;51.392;12.448;2023-07-09T16:05:28;36.70;57.50
1075;DHT22;526;51.392;12.448;2023-07-09T16:07:55;36.70;57.20
1075;DHT22;526;51.392;12.448;2023-07-09T16:10:23;36.80;58.40
1075;DHT22;526;51.392;12.448;2023-07-09T16:12:50;36.90;57.90
1075;DHT22;526;51.392;12.448;2023-07-09T16:15:21;36.90;57.90
1075;DHT22;526;51.392;12.448;2023-07-09T16:17:48;36.90;57.60
1075;DHT22;526;51.392;12.448;2023-07-09T16:20:17;36.80;58.00
1075;DHT22;526;51.392;12.448;2023-07-09T16:22:47;36.80;58.00
1075;DHT22;526;51.392;12.448;2023-07-09T16:25:21;36.80;58.00
1075;DHT22;526;51.392;12.448;2023-07-09T16:27:48;36.80;58.00
1075;DHT22;526;51.392;12.448;2023-07-09T16:30:17;36.90;58.10
1075;DHT22;526;51.392;12.448;2023-07-09T16:32:44;36.90;58.20
1075;DHT22;526;51.392;12.448;2023-07-09T16:35:14;36.90;57.80
1075;DHT22;526;51.392;12.448;2023-07-09T16:37:41;36.80;57.20
1075;DHT22;526;51.392;12.448;2023-07-09T16:40:23;36.80;57.20
1075;DHT22;526;51.392;12.448;2023-07-09T16:42:50;36.80;57.10
1075;DHT22;526;51.392;12.448;2023-07-09T16:45:18;36.80;58.60
1075;DHT22;526;51.392;12.448;2023-07-09T16:47:44;36.80;60.00
1075;DHT22;526;51.392;12.448;2023-07-09T16:50:16;36.70;59.90
1075;DHT22;526;51.392;12.448;2023-07-09T16:52:43;36.60;59.10
1075;DHT22;526;51.392;12.448;2023-07-09T16:55:14;36.50;58.20
1075;DHT22;526;51.392;12.448;2023-07-09T16:57:40;36.30;59.90
1075;DHT22;526;51.392;12.448;2023-07-09T17:02:38;35.90;63.00
1075;DHT22;526;51.392;12.448;2023-07-09T17:05:04;35.70;63.70
1075;DHT22;526;51.392;12.448;2023-07-09T17:07:30;35.50;62.90
1075;DHT22;526;51.392;12.448;2023-07-09T17:09:56;35.30;62.40
1075;DHT22;526;51.392;12.448;2023-07-09T17:12:26;35.10;63.60
1075;DHT22;526;51.392;12.448;2023-07-09T17:14:52;34.90;63.70
1075;DHT22;526;51.392;12.448;2023-07-09T17:17:20;34.70;63.50
1075;DHT22;526;51.392;12.448;2023-07-09T17:19:48;34.60;63.10
1075;DHT22;526;51.392;12.448;2023-07-09T17:24:47;34.30;63.70
1075;DHT22;526;51.392;12.448;2023-07-09T17:27:13;34.20;63.90
1075;DHT22;526;51.392;12.448;2023-07-09T17:29:40;34.10;64.20
1075;DHT22;526;51.392;12.448;2023-07-09T17:32:06;34.00;65.30
1075;DHT22;526;51.392;12.448;2023-07-09T17:34:32;33.80;65.80
1075;DHT22;526;51.392;12.448;2023-07-09T17:36:58;33.70;65.50
1075;DHT22;526;51.392;12.448;2023-07-09T17:39:24;33.60;65.40
1075;DHT22;526;51.392;12.448;2023-07-09T17:41:50;33.50;66.10
1075;DHT22;526;51.392;12.448;2023-07-09T17:44:21;33.40;66.90
1075;DHT22;526;51.392;12.448;2023-07-09T17:46:49;33.20;67.90
1075;DHT22;526;51.392;12.448;2023-07-09T17:49:19;33.00;68.40
1075;DHT22;526;51.392;12.448;2023-07-09T17:51:45;32.80;68.40
1075;DHT22;526;51.392;12.448;2023-07-09T17:54:16;32.70;68.70
1075;DHT22;526;51.392;12.448;2023-07-09T17:56:43;32.50;69.20
1075;DHT22;526;51.392;12.448;2023-07-09T17:59:12;32.30;69.30
1075;DHT22;526;51.392;12.448;2023-07-09T18:01:39;32.10;69.40
1075;DHT22;526;51.392;12.448;2023-07-09T18:04:15;32.00;70.30
1075;DHT22;526;51.392;12.448;2023-07-09T18:06:43;31.80;70.00
1075;DHT22;526;51.392;12.448;2023-07-09T18:09:17;31.70;70.30
1075;DHT22;526;51.392;12.448;2023-07-09T18:11:45;31.50;70.30
1075;DHT22;526;51.392;12.448;2023-07-09T18:14:22;31.30;70.50
1075;DHT22;526;51.392;12.448;2023-07-09T18:16:49;31.20;70.80
1075;DHT22;526;51.392;12.448;2023-07-09T18:19:27;31.10;70.70
1075;DHT22;526;51.392;12.448;2023-07-09T18:22:00;31.00;71.20
1075;DHT22;526;51.392;12.448;2023-07-09T18:24:26;30.90;71.70
1075;DHT22;526;51.392;12.448;2023-07-09T18:26:53;30.80;71.40
1075;DHT22;526;51.392;12.448;2023-07-09T18:29:30;30.70;71.80
1075;DHT22;526;51.392;12.448;2023-07-09T18:31:56;30.50;71.90
1075;DHT22;526;51.392;12.448;2023-07-09T18:34:22;30.40;72.30
1075;DHT22;526;51.392;12.448;2023-07-09T18:36:47;30.30;72.60
1075;DHT22;526;51.392;12.448;2023-07-09T18:39:13;30.10;72.50
1075;DHT22;526;51.392;12.448;2023-07-09T18:41:39;30.00;73.00
1075;DHT22;526;51.392;12.448;2023-07-09T18:44:18;29.90;73.10
1075;DHT22;526;51.392;12.448;2023-07-09T18:46:45;29.80;73.80
1075;DHT22;526;51.392;12.448;2023-07-09T18:49:10;29.70;73.70
1075;DHT22;526;51.392;12.448;2023-07-09T18:51:37;29.60;74.20
1075;DHT22;526;51.392;12.448;2023-07-09T18:54:29;29.50;74.00
1075;DHT22;526;51.392;12.448;2023-07-09T18:56:54;29.40;73.50
1075;DHT22;526;51.392;12.448;2023-07-09T18:59:21;29.40;73.10
1075;DHT22;526;51.392;12.448;2023-07-09T19:01:48;29.30;72.80
1075;DHT22;526;51.392;12.448;2023-07-09T19:04:22;29.30;72.80
1075;DHT22;526;51.392;12.448;2023-07-09T19:06:49;29.30;72.70
1075;DHT22;526;51.392;12.448;2023-07-09T19:09:23;29.30;72.40
1075;DHT22;526;51.392;12.448;2023-07-09T19:11:49;29.30;72.00
1075;DHT22;526;51.392;12.448;2023-07-09T19:14:18;29.30;71.60
1075;DHT22;526;51.392;12.448;2023-07-09T19:16:53;29.30;71.50
1075;DHT22;526;51.392;12.448;2023-07-09T19:19:22;29.20;71.80
1075;DHT22;526;51.392;12.448;2023-07-09T19:21:50;29.10;72.40
1075;DHT22;526;51.392;12.448;2023-07-09T19:24:21;29.00;72.50
1075;DHT22;526;51.392;12.448;2023-07-09T19:26:48;28.90;72.10
1075;DHT22;526;51.392;12.448;2023-07-09T19:29:14;28.90;72.10
1075;DHT22;526;51.392;12.448;2023-07-09T19:31:41;28.90;72.00
1075;DHT22;526;51.392;12.448;2023-07-09T19:34:36;28.80;72.20
1075;DHT22;526;51.392;12.448;2023-07-09T19:37:18;28.80;72.10
1075;DHT22;526;51.392;12.448;2023-07-09T19:39:44;28.70;72.20
1075;DHT22;526;51.392;12.448;2023-07-09T19:42:20;28.70;72.30
1075;DHT22;526;51.392;12.448;2023-07-09T19:44:46;28.60;72.40
1075;DHT22;526;51.392;12.448;2023-07-09T19:47:22;28.60;72.60
1075;DHT22;526;51.392;12.448;2023-07-09T19:49:55;28.50;72.70
1075;DHT22;526;51.392;12.448;2023-07-09T19:52:22;28.50;72.90
1075;DHT22;526;51.392;12.448;2023-07-09T19:54:47;28.50;73.40
1075;DHT22;526;51.392;12.448;2023-07-09T19:57:14;28.50;73.50
1075;DHT22;526;51.392;12.448;2023-07-09T19:59:40;28.40;73.20
1075;DHT22;526;51.392;12.448;2023-07-09T20:02:21;28.40;73.50
1075;DHT22;526;51.392;12.448;2023-07-09T20:04:49;28.30;74.30
1075;DHT22;526;51.392;12.448;2023-07-09T20:07:15;28.20;74.70
1075;DHT22;526;51.392;12.448;2023-07-09T20:09:41;28.10;75.30
1075;DHT22;526;51.392;12.448;2023-07-09T20:12:22;28.00;75.70
1075;DHT22;526;51.392;12.448;2023-07-09T20:14:49;28.00;75.70
1075;DHT22;526;51.392;12.448;2023-07-09T20:17:15;27.90;76.80
1075;DHT22;526;51.392;12.448;2023-07-09T20:19:41;27.80;77.00
1075;DHT22;526;51.392;12.448;2023-07-09T20:22:14;27.80;77.20
1075;DHT22;526;51.392;12.448;2023-07-09T20:24:40;27.70;76.80
1075;DHT22;526;51.392;12.448;2023-07-09T20:27:11;27.60;76.20
1075;DHT22;526;51.392;12.448;2023-07-09T20:29:37;27.50;76.70
1075;DHT22;526;51.392;12.448;2023-07-09T20:32:03;27.40;76.40
1075;DHT22;526;51.392;12.448;2023-07-09T20:34:29;27.30;76.60
1075;DHT22;526;51.392;12.448;2023-07-09T20:36:54;27.30;76.50
1075;DHT22;526;51.392;12.448;2023-07-09T20:39:21;27.20;76.70
1075;DHT22;526;51.392;12.448;2023-07-09T20:41:49;27.20;76.70
1075;DHT22;526;51.392;12.448;2023-07-09T20:44:25;27.10;76.60
1075;DHT22;526;51.392;12.448;2023-07-09T20:46:51;27.00;76.90
1075;DHT22;526;51.392;12.448;2023-07-09T20:49:29;27.00;77.70
1075;DHT22;526;51.392;12.448;2023-07-09T20:51:56;26.90;78.10
1075;DHT22;526;51.392;12.448;2023-07-09T20:54:22;26.80;77.60